sensor_id;sensor_type;location;lat;lon;timestamp;P1;durP1;ratioP1;P2;durP2;ratioP2
46613;SDS011;32338;50.430;6.806;2023-03-15T00:00:52;26.17;;;10.18;;
46613;SDS011;32338;50.430;6.806;2023-03-15T00:03:20;29.98;;;10.35;;
46613;SDS011;32338;50.430;6.806;2023-03-15T00:05:48;29.02;;;11.57;;
46613;SDS011;32338;50.430;6.806;2023-03-15T00:08:17;33.42;;;11.57;;
46613;SDS011;32338;50.430;6.806;2023-03-15T00:10:46;27.92;;;10.60;;
46613;SDS011;32338;50.430;6.806;2023-03-15T00:13:14;25.30;;;11.10;;
46613;SDS011;32338;50.430;6.806;2023-03-15T00:15:45;30.75;;;12.00;;
46613;SDS011;32338;50.430;6.806;2023-03-15T00:18:12;26.15;;;11.63;;
46613;SDS011;32338;50.430;6.806;2023-03-15T00:20:39;30.73;;;11.65;;
46613;SDS011;32338;50.430;6.806;2023-03-15T00:23:06;26.70;;;11.90;;
46613;SDS011;32338;50.430;6.806;2023-03-15T00:25:34;26.95;;;12.10;;
46613;SDS011;32338;50.430;6.806;2023-03-15T00:28:01;35.08;;;12.25;;
46613;SDS011;32338;50.430;6.806;2023-03-15T00:30:28;28.00;;;13.63;;
46613;SDS011;32338;50.430;6.806;2023-03-15T00:32:55;28.30;;;12.65;;
46613;SDS011;32338;50.430;6.806;2023-03-15T00:35:22;30.38;;;12.70;;
46613;SDS011;32338;50.430;6.806;2023-03-15T00:37:49;31.90;;;13.32;;
46613;SDS011;32338;50.430;6.806;2023-03-15T00:40:19;38.35;;;14.77;;
46613;SDS011;32338;50.430;6.806;2023-03-15T00:42:48;31.05;;;14.27;;
46613;SDS011;32338;50.430;6.806;2023-03-15T00:45:16;44.97;;;14.27;;
46613;SDS011;32338;50.430;6.806;2023-03-15T00:47:44;35.85;;;12.77;;
46613;SDS011;32338;50.430;6.806;2023-03-15T00:50:10;34.33;;;12.88;;
46613;SDS011;32338;50.430;6.806;2023-03-15T00:52:37;30.38;;;13.00;;
46613;SDS011;32338;50.430;6.806;2023-03-15T00:55:08;26.25;;;13.40;;
46613;SDS011;32338;50.430;6.806;2023-03-15T00:57:37;30.15;;;12.77;;
46613;SDS011;32338;50.430;6.806;2023-03-15T01:00:06;27.05;;;12.30;;
46613;SDS011;32338;50.430;6.806;2023-03-15T01:02:34;35.30;;;12.95;;
46613;SDS011;32338;50.430;6.806;2023-03-15T01:05:01;39.85;;;13.35;;
46613;SDS011;32338;50.430;6.806;2023-03-15T01:07:28;30.63;;;12.50;;
46613;SDS011;32338;50.430;6.806;2023-03-15T01:09:57;26.00;;;12.52;;
46613;SDS011;32338;50.430;6.806;2023-03-15T01:12:24;30.30;;;12.45;;
46613;SDS011;32338;50.430;6.806;2023-03-15T01:14:50;36.13;;;12.52;;
46613;SDS011;32338;50.430;6.806;2023-03-15T01:17:18;28.02;;;12.15;;
46613;SDS011;32338;50.430;6.806;2023-03-15T01:19:45;26.20;;;12.05;;
46613;SDS011;32338;50.430;6.806;2023-03-15T01:22:12;32.28;;;14.00;;
46613;SDS011;32338;50.430;6.806;2023-03-15T01:24:39;30.58;;;12.40;;
46613;SDS011;32338;50.430;6.806;2023-03-15T01:27:05;32.35;;;11.88;;
46613;SDS011;32338;50.430;6.806;2023-03-15T01:29:32;31.98;;;13.80;;
46613;SDS011;32338;50.430;6.806;2023-03-15T01:31:58;35.17;;;12.82;;
46613;SDS011;32338;50.430;6.806;2023-03-15T01:34:26;32.47;;;13.73;;
46613;SDS011;32338;50.430;6.806;2023-03-15T01:36:53;31.60;;;14.40;;
46613;SDS011;32338;50.430;6.806;2023-03-15T01:39:20;29.17;;;14.15;;
46613;SDS011;32338;50.430;6.806;2023-03-15T01:41:46;32.70;;;13.20;;
46613;SDS011;32338;50.430;6.806;2023-03-15T01:44:14;27.27;;;13.23;;
46613;SDS011;32338;50.430;6.806;2023-03-15T01:46:41;38.65;;;13.23;;
46613;SDS011;32338;50.430;6.806;2023-03-15T01:49:08;34.13;;;13.13;;
46613;SDS011;32338;50.430;6.806;2023-03-15T01:51:41;37.38;;;13.00;;
46613;SDS011;32338;50.430;6.806;2023-03-15T01:54:12;36.30;;;12.90;;
46613;SDS011;32338;50.430;6.806;2023-03-15T01:56:44;32.65;;;13.10;;
46613;SDS011;32338;50.430;6.806;2023-03-15T01:59:16;31.85;;;12.02;;
46613;SDS011;32338;50.430;6.806;2023-03-15T02:01:46;33.35;;;11.85;;
46613;SDS011;32338;50.430;6.806;2023-03-15T02:04:14;30.13;;;12.30;;
46613;SDS011;32338;50.430;6.806;2023-03-15T02:06:45;31.25;;;12.45;;
46613;SDS011;32338;50.430;6.806;2023-03-15T02:09:13;35.67;;;12.30;;
46613;SDS011;32338;50.430;6.806;2023-03-15T02:11:43;41.00;;;12.65;;
46613;SDS011;32338;50.430;6.806;2023-03-15T02:14:11;38.92;;;13.30;;
46613;SDS011;32338;50.430;6.806;2023-03-15T02:16:38;35.58;;;12.77;;
46613;SDS011;32338;50.430;6.806;2023-03-15T02:19:05;30.13;;;12.13;;
46613;SDS011;32338;50.430;6.806;2023-03-15T02:21:36;39.53;;;12.57;;
46613;SDS011;32338;50.430;6.806;2023-03-15T02:24:17;27.17;;;11.57;;
46613;SDS011;32338;50.430;6.806;2023-03-15T02:26:55;26.00;;;11.23;;
46613;SDS011;32338;50.430;6.806;2023-03-15T02:29:24;30.85;;;11.15;;
46613;SDS011;32338;50.430;6.806;2023-03-15T02:31:53;30.52;;;11.52;;
46613;SDS011;32338;50.430;6.806;2023-03-15T02:34:21;25.70;;;11.88;;
46613;SDS011;32338;50.430;6.806;2023-03-15T02:36:49;38.08;;;11.68;;
46613;SDS011;32338;50.430;6.806;2023-03-15T02:39:17;30.73;;;11.13;;
46613;SDS011;32338;50.430;6.806;2023-03-15T02:41:46;30.45;;;11.18;;
46613;SDS011;32338;50.430;6.806;2023-03-15T02:44:17;29.38;;;11.25;;
46613;SDS011;32338;50.430;6.806;2023-03-15T02:46:49;29.95;;;10.95;;
46613;SDS011;32338;50.430;6.806;2023-03-15T02:49:17;26.42;;;10.95;;
46613;SDS011;32338;50.430;6.806;2023-03-15T02:51:48;27.40;;;10.82;;
46613;SDS011;32338;50.430;6.806;2023-03-15T02:54:15;24.48;;;10.10;;
46613;SDS011;32338;50.430;6.806;2023-03-15T02:56:42;28.77;;;10.43;;
46613;SDS011;32338;50.430;6.806;2023-03-15T02:59:08;31.02;;;11.77;;
46613;SDS011;32338;50.430;6.806;2023-03-15T03:01:36;27.55;;;10.25;;
46613;SDS011;32338;50.430;6.806;2023-03-15T03:04:05;22.27;;;10.60;;
46613;SDS011;32338;50.430;6.806;2023-03-15T03:06:32;30.95;;;10.55;;
46613;SDS011;32338;50.430;6.806;2023-03-15T03:08:58;28.10;;;10.25;;
46613;SDS011;32338;50.430;6.806;2023-03-15T03:11:28;23.83;;;11.00;;
46613;SDS011;32338;50.430;6.806;2023-03-15T03:13:55;25.35;;;9.98;;
46613;SDS011;32338;50.430;6.806;2023-03-15T03:16:21;36.30;;;11.32;;
46613;SDS011;32338;50.430;6.806;2023-03-15T03:18:48;25.00;;;10.02;;
46613;SDS011;32338;50.430;6.806;2023-03-15T03:21:16;25.88;;;9.65;;
46613;SDS011;32338;50.430;6.806;2023-03-15T03:23:43;20.35;;;8.05;;
46613;SDS011;32338;50.430;6.806;2023-03-15T03:26:11;21.60;;;7.85;;
46613;SDS011;32338;50.430;6.806;2023-03-15T03:28:40;23.60;;;8.82;;
46613;SDS011;32338;50.430;6.806;2023-03-15T03:31:14;25.00;;;9.85;;
46613;SDS011;32338;50.430;6.806;2023-03-15T03:33:41;26.52;;;8.57;;
46613;SDS011;32338;50.430;6.806;2023-03-15T03:36:08;21.45;;;8.18;;
46613;SDS011;32338;50.430;6.806;2023-03-15T03:38:38;18.05;;;7.75;;
46613;SDS011;32338;50.430;6.806;2023-03-15T03:41:05;22.63;;;7.18;;
46613;SDS011;32338;50.430;6.806;2023-03-15T03:43:32;24.05;;;7.25;;
46613;SDS011;32338;50.430;6.806;2023-03-15T03:45:59;20.75;;;7.28;;
46613;SDS011;32338;50.430;6.806;2023-03-15T03:48:25;18.73;;;6.65;;
46613;SDS011;32338;50.430;6.806;2023-03-15T03:50:52;19.17;;;6.45;;
46613;SDS011;32338;50.430;6.806;2023-03-15T03:53:19;8.57;;;5.75;;
46613;SDS011;32338;50.430;6.806;2023-03-15T03:55:48;10.85;;;5.90;;
46613;SDS011;32338;50.430;6.806;2023-03-15T03:58:20;8.98;;;5.75;;
46613;SDS011;32338;50.430;6.806;2023-03-15T04:00:47;14.32;;;4.90;;
46613;SDS011;32338;50.430;6.806;2023-03-15T04:03:18;12.15;;;5.35;;
46613;SDS011;32338;50.430;6.806;2023-03-15T04:05:51;8.75;;;5.32;;
46613;SDS011;32338;50.430;6.806;2023-03-15T04:08:18;9.27;;;4.72;;
46613;SDS011;32338;50.430;6.806;2023-03-15T04:10:49;9.20;;;4.30;;
46613;SDS011;32338;50.430;6.806;2023-03-15T04:13:17;10.23;;;4.47;;
46613;SDS011;32338;50.430;6.806;2023-03-15T04:15:45;9.25;;;4.13;;
46613;SDS011;32338;50.430;6.806;2023-03-15T04:18:13;9.13;;;3.78;;
46613;SDS011;32338;50.430;6.806;2023-03-15T04:20:40;9.07;;;4.00;;
46613;SDS011;32338;50.430;6.806;2023-03-15T04:23:10;9.30;;;3.88;;
46613;SDS011;32338;50.430;6.806;2023-03-15T04:25:37;6.93;;;3.75;;
46613;SDS011;32338;50.430;6.806;2023-03-15T04:28:05;5.97;;;3.63;;
46613;SDS011;32338;50.430;6.806;2023-03-15T04:30:34;5.95;;;3.40;;
46613;SDS011;32338;50.430;6.806;2023-03-15T04:33:02;5.10;;;3.75;;
46613;SDS011;32338;50.430;6.806;2023-03-15T04:35:30;4.75;;;3.10;;
46613;SDS011;32338;50.430;6.806;2023-03-15T04:37:58;8.10;;;3.60;;
46613;SDS011;32338;50.430;6.806;2023-03-15T04:40:25;6.88;;;3.47;;
46613;SDS011;32338;50.430;6.806;2023-03-15T04:42:53;5.97;;;3.78;;
46613;SDS011;32338;50.430;6.806;2023-03-15T04:45:22;10.20;;;3.90;;
46613;SDS011;32338;50.430;6.806;2023-03-15T04:47:49;6.88;;;4.22;;
46613;SDS011;32338;50.430;6.806;2023-03-15T04:50:16;5.60;;;3.88;;
46613;SDS011;32338;50.430;6.806;2023-03-15T04:52:43;11.32;;;4.38;;
46613;SDS011;32338;50.430;6.806;2023-03-15T04:55:10;10.32;;;4.20;;
46613;SDS011;32338;50.430;6.806;2023-03-15T04:57:37;12.18;;;4.82;;
46613;SDS011;32338;50.430;6.806;2023-03-15T05:00:04;10.02;;;4.50;;
46613;SDS011;32338;50.430;6.806;2023-03-15T05:02:35;7.47;;;4.15;;
46613;SDS011;32338;50.430;6.806;2023-03-15T05:05:05;11.63;;;5.07;;
46613;SDS011;32338;50.430;6.806;2023-03-15T05:07:33;9.50;;;4.55;;
46613;SDS011;32338;50.430;6.806;2023-03-15T05:10:00;13.43;;;5.05;;
46613;SDS011;32338;50.430;6.806;2023-03-15T05:12:27;9.50;;;5.13;;
46613;SDS011;32338;50.430;6.806;2023-03-15T05:14:54;10.10;;;4.90;;
46613;SDS011;32338;50.430;6.806;2023-03-15T05:17:21;10.40;;;5.13;;
46613;SDS011;32338;50.430;6.806;2023-03-15T05:19:49;8.32;;;4.20;;
46613;SDS011;32338;50.430;6.806;2023-03-15T05:22:16;12.63;;;4.75;;
46613;SDS011;32338;50.430;6.806;2023-03-15T05:24:42;10.85;;;4.60;;
46613;SDS011;32338;50.430;6.806;2023-03-15T05:27:10;9.52;;;4.75;;
46613;SDS011;32338;50.430;6.806;2023-03-15T05:29:37;15.05;;;4.90;;
46613;SDS011;32338;50.430;6.806;2023-03-15T05:32:05;8.82;;;4.70;;
46613;SDS011;32338;50.430;6.806;2023-03-15T05:34:32;12.40;;;4.95;;
46613;SDS011;32338;50.430;6.806;2023-03-15T05:37:00;9.65;;;5.25;;
46613;SDS011;32338;50.430;6.806;2023-03-15T05:39:27;9.50;;;5.15;;
46613;SDS011;32338;50.430;6.806;2023-03-15T05:41:58;9.77;;;5.50;;
46613;SDS011;32338;50.430;6.806;2023-03-15T05:44:25;8.40;;;5.57;;
46613;SDS011;32338;50.430;6.806;2023-03-15T05:46:52;11.18;;;4.78;;
46613;SDS011;32338;50.430;6.806;2023-03-15T05:49:19;12.77;;;5.95;;
46613;SDS011;32338;50.430;6.806;2023-03-15T05:51:46;9.80;;;5.20;;
46613;SDS011;32338;50.430;6.806;2023-03-15T05:54:14;7.00;;;4.97;;
46613;SDS011;32338;50.430;6.806;2023-03-15T05:56:41;10.52;;;5.68;;
46613;SDS011;32338;50.430;6.806;2023-03-15T05:59:08;12.35;;;5.40;;
46613;SDS011;32338;50.430;6.806;2023-03-15T06:01:35;7.90;;;5.20;;
46613;SDS011;32338;50.430;6.806;2023-03-15T06:04:01;11.77;;;5.93;;
46613;SDS011;32338;50.430;6.806;2023-03-15T06:06:28;7.55;;;6.10;;
46613;SDS011;32338;50.430;6.806;2023-03-15T06:08:55;13.15;;;6.07;;
46613;SDS011;32338;50.430;6.806;2023-03-15T06:11:23;13.25;;;6.55;;
46613;SDS011;32338;50.430;6.806;2023-03-15T06:13:50;13.88;;;6.25;;
46613;SDS011;32338;50.430;6.806;2023-03-15T06:16:16;12.48;;;6.13;;
46613;SDS011;32338;50.430;6.806;2023-03-15T06:18:45;7.40;;;5.68;;
46613;SDS011;32338;50.430;6.806;2023-03-15T06:21:12;12.05;;;6.38;;
46613;SDS011;32338;50.430;6.806;2023-03-15T06:23:39;13.95;;;6.15;;
46613;SDS011;32338;50.430;6.806;2023-03-15T06:26:05;12.40;;;7.70;;
46613;SDS011;32338;50.430;6.806;2023-03-15T06:28:34;18.20;;;9.70;;
46613;SDS011;32338;50.430;6.806;2023-03-15T06:31:03;9.25;;;6.82;;
46613;SDS011;32338;50.430;6.806;2023-03-15T06:33:32;10.82;;;6.28;;
46613;SDS011;32338;50.430;6.806;2023-03-15T06:35:58;9.18;;;5.13;;
46613;SDS011;32338;50.430;6.806;2023-03-15T06:38:25;6.32;;;4.85;;
46613;SDS011;32338;50.430;6.806;2023-03-15T06:40:52;5.00;;;4.20;;
46613;SDS011;32338;50.430;6.806;2023-03-15T06:43:19;11.63;;;4.38;;
46613;SDS011;32338;50.430;6.806;2023-03-15T06:45:48;7.93;;;4.00;;
46613;SDS011;32338;50.430;6.806;2023-03-15T06:48:17;12.23;;;4.38;;
46613;SDS011;32338;50.430;6.806;2023-03-15T06:50:45;6.50;;;4.35;;
46613;SDS011;32338;50.430;6.806;2023-03-15T06:53:12;11.30;;;4.00;;
46613;SDS011;32338;50.430;6.806;2023-03-15T06:55:39;16.00;;;5.53;;
46613;SDS011;32338;50.430;6.806;2023-03-15T06:58:05;5.60;;;3.65;;
46613;SDS011;32338;50.430;6.806;2023-03-15T07:00:32;2.90;;;1.65;;
46613;SDS011;32338;50.430;6.806;2023-03-15T07:03:00;4.43;;;1.85;;
46613;SDS011;32338;50.430;6.806;2023-03-15T07:05:27;3.88;;;1.95;;
46613;SDS011;32338;50.430;6.806;2023-03-15T07:07:54;6.43;;;2.47;;
46613;SDS011;32338;50.430;6.806;2023-03-15T07:10:20;3.25;;;1.70;;
46613;SDS011;32338;50.430;6.806;2023-03-15T07:26:14;1.90;;;1.40;;
46613;SDS011;32338;50.430;6.806;2023-03-15T07:28:41;2.65;;;1.50;;
46613;SDS011;32338;50.430;6.806;2023-03-15T07:31:09;2.63;;;1.58;;
46613;SDS011;32338;50.430;6.806;2023-03-15T07:33:36;2.20;;;1.67;;
46613;SDS011;32338;50.430;6.806;2023-03-15T07:36:03;1.67;;;1.45;;
46613;SDS011;32338;50.430;6.806;2023-03-15T07:38:31;3.50;;;1.60;;
46613;SDS011;32338;50.430;6.806;2023-03-15T07:41:00;1.90;;;1.70;;
46613;SDS011;32338;50.430;6.806;2023-03-15T07:43:29;3.10;;;2.90;;
46613;SDS011;32338;50.430;6.806;2023-03-15T07:45:56;5.80;;;2.65;;
46613;SDS011;32338;50.430;6.806;2023-03-15T07:48:23;3.67;;;2.42;;
46613;SDS011;32338;50.430;6.806;2023-03-15T07:50:49;3.55;;;3.25;;
46613;SDS011;32338;50.430;6.806;2023-03-15T07:53:16;4.13;;;2.60;;
46613;SDS011;32338;50.430;6.806;2023-03-15T07:55:43;4.25;;;3.22;;
46613;SDS011;32338;50.430;6.806;2023-03-15T07:58:12;3.80;;;1.60;;
46613;SDS011;32338;50.430;6.806;2023-03-15T08:00:40;4.30;;;1.98;;
46613;SDS011;32338;50.430;6.806;2023-03-15T08:03:06;2.25;;;1.55;;
46613;SDS011;32338;50.430;6.806;2023-03-15T08:05:33;1.50;;;1.25;;
46613;SDS011;32338;50.430;6.806;2023-03-15T08:08:00;2.00;;;1.13;;
46613;SDS011;32338;50.430;6.806;2023-03-15T08:10:27;1.42;;;1.17;;
46613;SDS011;32338;50.430;6.806;2023-03-15T08:12:54;1.88;;;1.42;;
46613;SDS011;32338;50.430;6.806;2023-03-15T08:15:21;1.65;;;1.30;;
46613;SDS011;32338;50.430;6.806;2023-03-15T08:17:49;1.08;;;0.68;;
46613;SDS011;32338;50.430;6.806;2023-03-15T08:20:16;0.70;;;0.70;;
46613;SDS011;32338;50.430;6.806;2023-03-15T08:22:43;1.98;;;0.70;;
46613;SDS011;32338;50.430;6.806;2023-03-15T08:25:11;0.80;;;0.68;;
46613;SDS011;32338;50.430;6.806;2023-03-15T08:27:40;1.55;;;0.88;;
46613;SDS011;32338;50.430;6.806;2023-03-15T08:30:07;1.27;;;0.70;;
46613;SDS011;32338;50.430;6.806;2023-03-15T08:32:36;1.58;;;0.70;;
46613;SDS011;32338;50.430;6.806;2023-03-15T08:35:04;1.10;;;0.98;;
46613;SDS011;32338;50.430;6.806;2023-03-15T08:37:31;1.27;;;0.82;;
46613;SDS011;32338;50.430;6.806;2023-03-15T08:39:58;0.93;;;0.80;;
46613;SDS011;32338;50.430;6.806;2023-03-15T08:42:31;2.10;;;1.15;;
46613;SDS011;32338;50.430;6.806;2023-03-15T08:44:57;1.10;;;1.05;;
46613;SDS011;32338;50.430;6.806;2023-03-15T08:47:26;2.90;;;0.82;;
46613;SDS011;32338;50.430;6.806;2023-03-15T08:49:52;2.25;;;0.80;;
46613;SDS011;32338;50.430;6.806;2023-03-15T08:52:21;2.72;;;0.90;;
46613;SDS011;32338;50.430;6.806;2023-03-15T08:54:48;1.02;;;0.70;;
46613;SDS011;32338;50.430;6.806;2023-03-15T08:57:14;1.95;;;0.60;;
46613;SDS011;32338;50.430;6.806;2023-03-15T08:59:41;0.70;;;0.60;;
46613;SDS011;32338;50.430;6.806;2023-03-15T09:02:08;1.30;;;0.73;;
46613;SDS011;32338;50.430;6.806;2023-03-15T09:04:36;2.25;;;0.80;;
46613;SDS011;32338;50.430;6.806;2023-03-15T09:07:03;1.10;;;0.90;;
46613;SDS011;32338;50.430;6.806;2023-03-15T09:09:31;1.63;;;1.00;;
46613;SDS011;32338;50.430;6.806;2023-03-15T09:11:58;1.33;;;1.02;;
46613;SDS011;32338;50.430;6.806;2023-03-15T09:14:26;3.28;;;0.95;;
46613;SDS011;32338;50.430;6.806;2023-03-15T09:16:53;5.97;;;1.20;;
46613;SDS011;32338;50.430;6.806;2023-03-15T09:19:19;1.73;;;1.02;;
46613;SDS011;32338;50.430;6.806;2023-03-15T09:21:46;1.98;;;1.10;;
46613;SDS011;32338;50.430;6.806;2023-03-15T09:24:13;2.63;;;1.30;;
46613;SDS011;32338;50.430;6.806;2023-03-15T09:26:41;1.35;;;1.00;;
46613;SDS011;32338;50.430;6.806;2023-03-15T09:29:08;1.45;;;1.10;;
46613;SDS011;32338;50.430;6.806;2023-03-15T09:31:34;1.15;;;1.05;;
46613;SDS011;32338;50.430;6.806;2023-03-15T09:34:02;3.67;;;1.08;;
46613;SDS011;32338;50.430;6.806;2023-03-15T09:36:29;3.28;;;1.13;;
46613;SDS011;32338;50.430;6.806;2023-03-15T09:38:56;2.30;;;1.33;;
46613;SDS011;32338;50.430;6.806;2023-03-15T09:41:28;1.50;;;0.95;;
46613;SDS011;32338;50.430;6.806;2023-03-15T09:44:15;2.20;;;1.02;;
46613;SDS011;32338;50.430;6.806;2023-03-15T09:46:56;1.50;;;1.23;;
46613;SDS011;32338;50.430;6.806;2023-03-15T09:49:32;1.95;;;1.10;;
46613;SDS011;32338;50.430;6.806;2023-03-15T09:52:08;1.38;;;0.93;;
46613;SDS011;32338;50.430;6.806;2023-03-15T09:54:52;1.45;;;1.00;;
46613;SDS011;32338;50.430;6.806;2023-03-15T09:57:24;1.52;;;1.10;;
46613;SDS011;32338;50.430;6.806;2023-03-15T10:00:02;3.33;;;1.20;;
46613;SDS011;32338;50.430;6.806;2023-03-15T10:02:35;2.03;;;1.17;;
46613;SDS011;32338;50.430;6.806;2023-03-15T10:05:10;5.53;;;1.27;;
46613;SDS011;32338;50.430;6.806;2023-03-15T10:07:40;4.75;;;1.30;;
46613;SDS011;32338;50.430;6.806;2023-03-15T10:10:07;4.30;;;1.30;;
46613;SDS011;32338;50.430;6.806;2023-03-15T10:12:41;2.25;;;1.60;;
46613;SDS011;32338;50.430;6.806;2023-03-15T10:15:20;2.63;;;1.52;;
46613;SDS011;32338;50.430;6.806;2023-03-15T10:18:00;4.13;;;1.58;;
46613;SDS011;32338;50.430;6.806;2023-03-15T10:20:45;4.05;;;1.58;;
46613;SDS011;32338;50.430;6.806;2023-03-15T10:23:22;4.85;;;1.40;;
46613;SDS011;32338;50.430;6.806;2023-03-15T10:25:56;3.30;;;1.40;;
46613;SDS011;32338;50.430;6.806;2023-03-15T10:28:24;3.35;;;2.00;;
46613;SDS011;32338;50.430;6.806;2023-03-15T10:30:55;3.65;;;1.52;;
46613;SDS011;32338;50.430;6.806;2023-03-15T10:33:26;4.60;;;1.50;;
46613;SDS011;32338;50.430;6.806;2023-03-15T10:35:56;1.45;;;1.20;;
46613;SDS011;32338;50.430;6.806;2023-03-15T10:38:24;1.95;;;1.48;;
46613;SDS011;32338;50.430;6.806;2023-03-15T10:40:53;2.75;;;1.77;;
46613;SDS011;32338;50.430;6.806;2023-03-15T10:43:21;2.13;;;1.70;;
46613;SDS011;32338;50.430;6.806;2023-03-15T10:46:01;3.63;;;1.58;;
46613;SDS011;32338;50.430;6.806;2023-03-15T10:48:30;5.60;;;1.67;;
46613;SDS011;32338;50.430;6.806;2023-03-15T10:51:00;2.42;;;1.88;;
46613;SDS011;32338;50.430;6.806;2023-03-15T10:53:28;4.72;;;2.20;;
46613;SDS011;32338;50.430;6.806;2023-03-15T10:55:59;3.90;;;1.85;;
46613;SDS011;32338;50.430;6.806;2023-03-15T10:58:28;4.43;;;1.85;;
46613;SDS011;32338;50.430;6.806;2023-03-15T11:01:06;3.35;;;1.70;;
46613;SDS011;32338;50.430;6.806;2023-03-15T11:03:38;4.35;;;1.75;;
46613;SDS011;32338;50.430;6.806;2023-03-15T11:06:17;1.60;;;1.23;;
46613;SDS011;32338;50.430;6.806;2023-03-15T11:08:45;1.63;;;1.13;;
46613;SDS011;32338;50.430;6.806;2023-03-15T11:11:13;3.30;;;1.15;;
46613;SDS011;32338;50.430;6.806;2023-03-15T11:13:39;4.18;;;1.05;;
46613;SDS011;32338;50.430;6.806;2023-03-15T11:16:18;5.50;;;1.35;;
46613;SDS011;32338;50.430;6.806;2023-03-15T11:18:48;3.13;;;1.05;;
46613;SDS011;32338;50.430;6.806;2023-03-15T11:21:18;6.00;;;1.00;;
46613;SDS011;32338;50.430;6.806;2023-03-15T11:23:48;3.35;;;1.20;;
46613;SDS011;32338;50.430;6.806;2023-03-15T11:26:18;2.78;;;0.98;;
46613;SDS011;32338;50.430;6.806;2023-03-15T11:28:48;4.93;;;1.00;;
46613;SDS011;32338;50.430;6.806;2023-03-15T11:31:19;1.95;;;0.80;;
46613;SDS011;32338;50.430;6.806;2023-03-15T11:33:50;8.07;;;1.02;;
46613;SDS011;32338;50.430;6.806;2023-03-15T11:36:25;2.15;;;0.80;;
46613;SDS011;32338;50.430;6.806;2023-03-15T11:38:55;3.72;;;1.35;;
46613;SDS011;32338;50.430;6.806;2023-03-15T11:41:27;2.53;;;1.05;;
46613;SDS011;32338;50.430;6.806;2023-03-15T11:44:00;4.03;;;1.10;;
46613;SDS011;32338;50.430;6.806;2023-03-15T11:46:38;1.60;;;0.70;;
46613;SDS011;32338;50.430;6.806;2023-03-15T11:49:11;4.40;;;0.73;;
46613;SDS011;32338;50.430;6.806;2023-03-15T11:51:42;2.03;;;0.80;;
46613;SDS011;32338;50.430;6.806;2023-03-15T11:54:10;4.32;;;0.80;;
46613;SDS011;32338;50.430;6.806;2023-03-15T11:56:50;1.92;;;0.60;;
46613;SDS011;32338;50.430;6.806;2023-03-15T11:59:19;1.65;;;0.70;;
46613;SDS011;32338;50.430;6.806;2023-03-15T12:01:56;0.93;;;0.60;;
46613;SDS011;32338;50.430;6.806;2023-03-15T12:04:38;3.55;;;0.93;;
46613;SDS011;32338;50.430;6.806;2023-03-15T12:07:23;2.53;;;0.68;;
46613;SDS011;32338;50.430;6.806;2023-03-15T12:09:55;5.00;;;0.70;;
46613;SDS011;32338;50.430;6.806;2023-03-15T12:12:42;3.10;;;0.73;;
46613;SDS011;32338;50.430;6.806;2023-03-15T12:15:39;1.70;;;0.85;;
46613;SDS011;32338;50.430;6.806;2023-03-15T12:18:13;1.52;;;0.63;;
46613;SDS011;32338;50.430;6.806;2023-03-15T12:20:45;3.75;;;0.75;;
46613;SDS011;32338;50.430;6.806;2023-03-15T12:23:21;2.05;;;0.90;;
46613;SDS011;32338;50.430;6.806;2023-03-15T12:25:57;3.15;;;0.82;;
46613;SDS011;32338;50.430;6.806;2023-03-15T12:28:33;6.63;;;1.13;;
46613;SDS011;32338;50.430;6.806;2023-03-15T12:31:02;2.22;;;0.65;;
46613;SDS011;32338;50.430;6.806;2023-03-15T12:33:33;2.28;;;0.60;;
46613;SDS011;32338;50.430;6.806;2023-03-15T12:36:14;2.88;;;0.70;;
46613;SDS011;32338;50.430;6.806;2023-03-15T12:38:52;2.97;;;0.80;;
46613;SDS011;32338;50.430;6.806;2023-03-15T12:41:33;2.65;;;0.50;;
46613;SDS011;32338;50.430;6.806;2023-03-15T12:46:55;2.38;;;0.75;;
46613;SDS011;32338;50.430;6.806;2023-03-15T12:49:29;1.80;;;0.80;;
46613;SDS011;32338;50.430;6.806;2023-03-15T12:51:59;3.83;;;0.60;;
46613;SDS011;32338;50.430;6.806;2023-03-15T12:54:29;2.78;;;0.70;;
46613;SDS011;32338;50.430;6.806;2023-03-15T12:57:02;3.08;;;0.75;;
46613;SDS011;32338;50.430;6.806;2023-03-15T12:59:32;1.73;;;0.50;;
46613;SDS011;32338;50.430;6.806;2023-03-15T13:02:23;3.13;;;0.63;;
46613;SDS011;32338;50.430;6.806;2023-03-15T13:05:03;2.05;;;0.70;;
46613;SDS011;32338;50.430;6.806;2023-03-15T13:07:44;1.73;;;0.65;;
46613;SDS011;32338;50.430;6.806;2023-03-15T13:10:37;2.10;;;0.57;;
46613;SDS011;32338;50.430;6.806;2023-03-15T13:13:22;2.85;;;0.80;;
46613;SDS011;32338;50.430;6.806;2023-03-15T13:15:59;2.13;;;0.75;;
46613;SDS011;32338;50.430;6.806;2023-03-15T13:18:40;1.88;;;0.80;;
46613;SDS011;32338;50.430;6.806;2023-03-15T13:21:16;2.40;;;0.60;;
46613;SDS011;32338;50.430;6.806;2023-03-15T13:23:48;2.25;;;0.63;;
46613;SDS011;32338;50.430;6.806;2023-03-15T13:29:10;1.38;;;0.60;;
46613;SDS011;32338;50.430;6.806;2023-03-15T13:31:41;2.20;;;1.15;;
46613;SDS011;32338;50.430;6.806;2023-03-15T13:34:10;0.82;;;0.60;;
46613;SDS011;32338;50.430;6.806;2023-03-15T13:36:41;0.93;;;0.70;;
46613;SDS011;32338;50.430;6.806;2023-03-15T13:39:15;0.93;;;0.45;;
46613;SDS011;32338;50.430;6.806;2023-03-15T13:41:44;5.47;;;0.40;;
46613;SDS011;32338;50.430;6.806;2023-03-15T13:44:14;1.67;;;0.60;;
46613;SDS011;32338;50.430;6.806;2023-03-15T13:46:44;3.08;;;0.60;;
46613;SDS011;32338;50.430;6.806;2023-03-15T13:49:12;1.75;;;1.30;;
46613;SDS011;32338;50.430;6.806;2023-03-15T13:51:40;3.10;;;0.90;;
46613;SDS011;32338;50.430;6.806;2023-03-15T13:54:10;2.60;;;0.30;;
46613;SDS011;32338;50.430;6.806;2023-03-15T13:56:45;0.55;;;0.55;;
46613;SDS011;32338;50.430;6.806;2023-03-15T13:59:21;1.17;;;0.50;;
46613;SDS011;32338;50.430;6.806;2023-03-15T14:01:51;1.23;;;0.85;;
46613;SDS011;32338;50.430;6.806;2023-03-15T14:04:19;3.03;;;0.50;;
46613;SDS011;32338;50.430;6.806;2023-03-15T14:06:48;1.85;;;0.68;;
46613;SDS011;32338;50.430;6.806;2023-03-15T14:09:17;1.50;;;0.70;;
46613;SDS011;32338;50.430;6.806;2023-03-15T14:11:45;2.15;;;0.50;;
46613;SDS011;32338;50.430;6.806;2023-03-15T14:14:27;3.03;;;0.70;;
46613;SDS011;32338;50.430;6.806;2023-03-15T14:16:55;2.00;;;0.60;;
46613;SDS011;32338;50.430;6.806;2023-03-15T14:19:24;1.90;;;0.70;;
46613;SDS011;32338;50.430;6.806;2023-03-15T14:21:55;1.33;;;0.50;;
46613;SDS011;32338;50.430;6.806;2023-03-15T14:24:25;2.13;;;0.75;;
46613;SDS011;32338;50.430;6.806;2023-03-15T14:26:56;1.67;;;0.60;;
46613;SDS011;32338;50.430;6.806;2023-03-15T14:29:26;1.63;;;0.50;;
46613;SDS011;32338;50.430;6.806;2023-03-15T14:31:58;2.05;;;0.70;;
46613;SDS011;32338;50.430;6.806;2023-03-15T14:34:30;1.67;;;0.60;;
46613;SDS011;32338;50.430;6.806;2023-03-15T14:37:01;2.45;;;0.57;;
46613;SDS011;32338;50.430;6.806;2023-03-15T14:39:39;1.95;;;0.70;;
46613;SDS011;32338;50.430;6.806;2023-03-15T14:42:09;3.20;;;0.70;;
46613;SDS011;32338;50.430;6.806;2023-03-15T14:44:36;2.15;;;0.70;;
46613;SDS011;32338;50.430;6.806;2023-03-15T14:47:05;2.00;;;0.98;;
46613;SDS011;32338;50.430;6.806;2023-03-15T14:49:37;2.85;;;0.73;;
46613;SDS011;32338;50.430;6.806;2023-03-15T14:52:06;0.63;;;0.60;;
46613;SDS011;32338;50.430;6.806;2023-03-15T14:54:33;0.90;;;0.50;;
46613;SDS011;32338;50.430;6.806;2023-03-15T14:57:02;4.22;;;0.70;;
46613;SDS011;32338;50.430;6.806;2023-03-15T14:59:29;5.28;;;1.02;;
46613;SDS011;32338;50.430;6.806;2023-03-15T15:01:57;2.38;;;0.57;;
46613;SDS011;32338;50.430;6.806;2023-03-15T15:04:28;1.63;;;0.70;;
46613;SDS011;32338;50.430;6.806;2023-03-15T15:06:58;3.13;;;0.60;;
46613;SDS011;32338;50.430;6.806;2023-03-15T15:09:28;1.83;;;0.63;;
46613;SDS011;32338;50.430;6.806;2023-03-15T15:11:56;0.68;;;0.50;;
46613;SDS011;32338;50.430;6.806;2023-03-15T15:14:23;2.15;;;0.57;;